sensor_id;sensor_type;location;lat;lon;timestamp;P1;durP1;ratioP1;P2;durP2;ratioP2
71856;SDS011;63344;46.980;28.882;2023-04-01T00:01:58;44.60;;;22.33;;
71856;SDS011;63344;46.980;28.882;2023-04-01T00:04:26;47.17;;;21.55;;
71856;SDS011;63344;46.980;28.882;2023-04-01T00:06:54;40.20;;;19.50;;
71856;SDS011;63344;46.980;28.882;2023-04-01T00:09:22;44.95;;;21.73;;
71856;SDS011;63344;46.980;28.882;2023-04-01T00:11:49;46.72;;;20.80;;
71856;SDS011;63344;46.980;28.882;2023-04-01T00:14:17;42.92;;;19.33;;
71856;SDS011;63344;46.980;28.882;2023-04-01T00:16:44;40.05;;;20.20;;
71856;SDS011;63344;46.980;28.882;2023-04-01T00:19:12;46.53;;;20.20;;
71856;SDS011;63344;46.980;28.882;2023-04-01T00:21:40;39.20;;;20.38;;
71856;SDS011;63344;46.980;28.882;2023-04-01T00:24:08;39.28;;;20.50;;
71856;SDS011;63344;46.980;28.882;2023-04-01T00:26:35;42.75;;;19.15;;
71856;SDS011;63344;46.980;28.882;2023-04-01T00:29:02;40.28;;;20.13;;
71856;SDS011;63344;46.980;28.882;2023-04-01T00:31:29;35.85;;;19.75;;
71856;SDS011;63344;46.980;28.882;2023-04-01T00:33:57;39.83;;;22.13;;
71856;SDS011;63344;46.980;28.882;2023-04-01T00:36:24;44.97;;;19.17;;
71856;SDS011;63344;46.980;28.882;2023-04-01T00:38:52;46.53;;;23.60;;
71856;SDS011;63344;46.980;28.882;2023-04-01T00:41:19;42.53;;;22.33;;
71856;SDS011;63344;46.980;28.882;2023-04-01T00:43:52;39.10;;;20.20;;
71856;SDS011;63344;46.980;28.882;2023-04-01T00:46:39;41.22;;;20.63;;
71856;SDS011;63344;46.980;28.882;2023-04-01T00:49:07;45.72;;;19.67;;
71856;SDS011;63344;46.980;28.882;2023-04-01T00:51:36;43.03;;;21.58;;
71856;SDS011;63344;46.980;28.882;2023-04-01T00:54:05;40.38;;;20.77;;
71856;SDS011;63344;46.980;28.882;2023-04-01T00:56:35;47.17;;;21.20;;
71856;SDS011;63344;46.980;28.882;2023-04-01T00:59:11;48.08;;;22.60;;
71856;SDS011;63344;46.980;28.882;2023-04-01T01:01:42;40.25;;;20.60;;
71856;SDS011;63344;46.980;28.882;2023-04-01T01:12:44;80.47;;;21.73;;
71856;SDS011;63344;46.980;28.882;2023-04-01T01:15:32;59.35;;;20.38;;
71856;SDS011;63344;46.980;28.882;2023-04-01T01:37:05;42.65;;;16.05;;
71856;SDS011;63344;46.980;28.882;2023-04-01T01:42:09;28.85;;;13.73;;
71856;SDS011;63344;46.980;28.882;2023-04-01T01:44:40;31.67;;;16.30;;
71856;SDS011;63344;46.980;28.882;2023-04-01T01:47:11;78.47;;;19.85;;
71856;SDS011;63344;46.980;28.882;2023-04-01T01:49:40;101.82;;;21.20;;
71856;SDS011;63344;46.980;28.882;2023-04-01T01:52:10;89.80;;;20.23;;
71856;SDS011;63344;46.980;28.882;2023-04-01T01:54:51;76.60;;;20.15;;
71856;SDS011;63344;46.980;28.882;2023-04-01T01:57:21;89.22;;;19.30;;
71856;SDS011;63344;46.980;28.882;2023-04-01T01:59:54;82.18;;;18.60;;
71856;SDS011;63344;46.980;28.882;2023-04-01T02:02:25;60.10;;;19.40;;
71856;SDS011;63344;46.980;28.882;2023-04-01T02:04:53;46.13;;;18.58;;
71856;SDS011;63344;46.980;28.882;2023-04-01T02:07:22;84.00;;;20.42;;
71856;SDS011;63344;46.980;28.882;2023-04-01T02:09:54;48.90;;;19.77;;
71856;SDS011;63344;46.980;28.882;2023-04-01T02:12:23;76.55;;;18.85;;
71856;SDS011;63344;46.980;28.882;2023-04-01T02:17:25;41.17;;;17.88;;
71856;SDS011;63344;46.980;28.882;2023-04-01T02:19:56;55.95;;;16.85;;
71856;SDS011;63344;46.980;28.882;2023-04-01T02:22:34;33.78;;;16.75;;
71856;SDS011;63344;46.980;28.882;2023-04-01T02:25:46;54.28;;;19.23;;
71856;SDS011;63344;46.980;28.882;2023-04-01T02:27:55;42.65;;;17.25;;
71856;SDS011;63344;46.980;28.882;2023-04-01T02:30:25;44.85;;;19.33;;
71856;SDS011;63344;46.980;28.882;2023-04-01T02:32:55;40.35;;;14.98;;
71856;SDS011;63344;46.980;28.882;2023-04-01T02:37:55;81.55;;;19.15;;
71856;SDS011;63344;46.980;28.882;2023-04-01T02:40:22;38.05;;;16.02;;
71856;SDS011;63344;46.980;28.882;2023-04-01T02:42:49;64.93;;;16.27;;
71856;SDS011;63344;46.980;28.882;2023-04-01T02:45:17;58.58;;;16.50;;
71856;SDS011;63344;46.980;28.882;2023-04-01T02:47:44;58.97;;;16.67;;
71856;SDS011;63344;46.980;28.882;2023-04-01T02:50:11;50.90;;;16.73;;
71856;SDS011;63344;46.980;28.882;2023-04-01T02:52:39;60.17;;;18.17;;
71856;SDS011;63344;46.980;28.882;2023-04-01T02:55:06;83.03;;;18.55;;
71856;SDS011;63344;46.980;28.882;2023-04-01T02:57:34;63.15;;;15.30;;
71856;SDS011;63344;46.980;28.882;2023-04-01T03:00:02;33.53;;;13.52;;
71856;SDS011;63344;46.980;28.882;2023-04-01T03:02:30;25.05;;;12.50;;
71856;SDS011;63344;46.980;28.882;2023-04-01T03:04:57;17.25;;;10.10;;
71856;SDS011;63344;46.980;28.882;2023-04-01T03:07:24;52.50;;;16.27;;
71856;SDS011;63344;46.980;28.882;2023-04-01T03:09:51;53.72;;;17.98;;
71856;SDS011;63344;46.980;28.882;2023-04-01T03:12:19;100.72;;;18.58;;
71856;SDS011;63344;46.980;28.882;2023-04-01T03:14:46;37.72;;;16.88;;
71856;SDS011;63344;46.980;28.882;2023-04-01T03:17:13;29.77;;;14.52;;
71856;SDS011;63344;46.980;28.882;2023-04-01T03:19:41;51.50;;;20.10;;
71856;SDS011;63344;46.980;28.882;2023-04-01T03:22:10;51.45;;;18.38;;
71856;SDS011;63344;46.980;28.882;2023-04-01T03:24:37;35.17;;;17.05;;
71856;SDS011;63344;46.980;28.882;2023-04-01T03:27:05;30.92;;;15.95;;
71856;SDS011;63344;46.980;28.882;2023-04-01T03:29:32;31.17;;;15.43;;
71856;SDS011;63344;46.980;28.882;2023-04-01T03:31:59;27.63;;;14.27;;
71856;SDS011;63344;46.980;28.882;2023-04-01T03:34:26;27.77;;;16.10;;
71856;SDS011;63344;46.980;28.882;2023-04-01T03:36:54;29.15;;;16.08;;
71856;SDS011;63344;46.980;28.882;2023-04-01T03:39:21;26.98;;;16.30;;
71856;SDS011;63344;46.980;28.882;2023-04-01T03:41:49;28.73;;;16.30;;
71856;SDS011;63344;46.980;28.882;2023-04-01T03:44:16;26.65;;;15.25;;
71856;SDS011;63344;46.980;28.882;2023-04-01T03:46:44;29.25;;;16.15;;
71856;SDS011;63344;46.980;28.882;2023-04-01T03:49:13;23.13;;;13.23;;
71856;SDS011;63344;46.980;28.882;2023-04-01T03:54:10;29.00;;;16.17;;
71856;SDS011;63344;46.980;28.882;2023-04-01T03:56:38;18.70;;;10.45;;
71856;SDS011;63344;46.980;28.882;2023-04-01T03:59:08;35.00;;;17.38;;
71856;SDS011;63344;46.980;28.882;2023-04-01T04:01:36;36.10;;;19.00;;
71856;SDS011;63344;46.980;28.882;2023-04-01T04:04:05;34.42;;;16.70;;
71856;SDS011;63344;46.980;28.882;2023-04-01T04:06:35;36.58;;;18.30;;
71856;SDS011;63344;46.980;28.882;2023-04-01T04:09:03;30.58;;;16.38;;
71856;SDS011;63344;46.980;28.882;2023-04-01T04:11:32;36.63;;;20.13;;
71856;SDS011;63344;46.980;28.882;2023-04-01T04:14:01;34.33;;;17.33;;
71856;SDS011;63344;46.980;28.882;2023-04-01T04:16:29;28.38;;;16.20;;
71856;SDS011;63344;46.980;28.882;2023-04-01T04:18:57;32.47;;;17.48;;
71856;SDS011;63344;46.980;28.882;2023-04-01T04:21:26;30.98;;;18.40;;
71856;SDS011;63344;46.980;28.882;2023-04-01T04:23:54;32.28;;;18.33;;
71856;SDS011;63344;46.980;28.882;2023-04-01T04:26:21;33.55;;;18.02;;
71856;SDS011;63344;46.980;28.882;2023-04-01T04:28:49;31.33;;;17.38;;
71856;SDS011;63344;46.980;28.882;2023-04-01T04:31:20;36.35;;;18.17;;
71856;SDS011;63344;46.980;28.882;2023-04-01T04:33:51;26.90;;;13.60;;
71856;SDS011;63344;46.980;28.882;2023-04-01T04:36:19;21.63;;;12.88;;
71856;SDS011;63344;46.980;28.882;2023-04-01T04:38:48;17.00;;;10.07;;
71856;SDS011;63344;46.980;28.882;2023-04-01T04:41:17;24.25;;;13.85;;
71856;SDS011;63344;46.980;28.882;2023-04-01T04:43:52;23.52;;;13.93;;
71856;SDS011;63344;46.980;28.882;2023-04-01T04:46:22;27.95;;;16.77;;
71856;SDS011;63344;46.980;28.882;2023-04-01T04:48:50;29.00;;;17.15;;
71856;SDS011;63344;46.980;28.882;2023-04-01T04:51:19;29.50;;;17.38;;
71856;SDS011;63344;46.980;28.882;2023-04-01T04:53:47;28.67;;;16.17;;
71856;SDS011;63344;46.980;28.882;2023-04-01T04:56:22;33.55;;;17.80;;
71856;SDS011;63344;46.980;28.882;2023-04-01T04:58:49;33.55;;;16.38;;
71856;SDS011;63344;46.980;28.882;2023-04-01T05:01:17;30.30;;;17.75;;
71856;SDS011;63344;46.980;28.882;2023-04-01T05:03:46;32.97;;;17.92;;
71856;SDS011;63344;46.980;28.882;2023-04-01T05:06:15;33.38;;;17.65;;
71856;SDS011;63344;46.980;28.882;2023-04-01T05:08:43;28.25;;;17.58;;
71856;SDS011;63344;46.980;28.882;2023-04-01T05:11:12;31.98;;;17.70;;
71856;SDS011;63344;46.980;28.882;2023-04-01T05:13:41;22.50;;;13.60;;
71856;SDS011;63344;46.980;28.882;2023-04-01T05:16:14;18.35;;;10.68;;
71856;SDS011;63344;46.980;28.882;2023-04-01T05:18:43;21.67;;;11.65;;
71856;SDS011;63344;46.980;28.882;2023-04-01T05:21:11;26.67;;;15.07;;
71856;SDS011;63344;46.980;28.882;2023-04-01T05:23:39;27.27;;;15.32;;
71856;SDS011;63344;46.980;28.882;2023-04-01T05:26:09;26.00;;;16.10;;
71856;SDS011;63344;46.980;28.882;2023-04-01T05:28:39;26.98;;;15.93;;
71856;SDS011;63344;46.980;28.882;2023-04-01T05:31:08;27.15;;;16.67;;
71856;SDS011;63344;46.980;28.882;2023-04-01T05:33:35;28.25;;;16.60;;
71856;SDS011;63344;46.980;28.882;2023-04-01T05:36:07;24.23;;;14.93;;
71856;SDS011;63344;46.980;28.882;2023-04-01T05:38:40;24.50;;;15.35;;
71856;SDS011;63344;46.980;28.882;2023-04-01T05:41:07;23.80;;;14.93;;
71856;SDS011;63344;46.980;28.882;2023-04-01T05:43:38;25.98;;;14.88;;
71856;SDS011;63344;46.980;28.882;2023-04-01T05:46:06;24.17;;;14.38;;
71856;SDS011;63344;46.980;28.882;2023-04-01T05:48:34;28.70;;;15.38;;
71856;SDS011;63344;46.980;28.882;2023-04-01T05:51:02;23.88;;;13.73;;
71856;SDS011;63344;46.980;28.882;2023-04-01T05:53:30;22.73;;;14.18;;
71856;SDS011;63344;46.980;28.882;2023-04-01T05:56:03;26.30;;;15.13;;
71856;SDS011;63344;46.980;28.882;2023-04-01T05:58:31;23.70;;;14.77;;
71856;SDS011;63344;46.980;28.882;2023-04-01T06:01:05;18.95;;;10.65;;
71856;SDS011;63344;46.980;28.882;2023-04-01T06:03:41;21.13;;;12.98;;
71856;SDS011;63344;46.980;28.882;2023-04-01T06:06:14;10.27;;;6.13;;
71856;SDS011;63344;46.980;28.882;2023-04-01T06:08:45;12.85;;;8.68;;
71856;SDS011;63344;46.980;28.882;2023-04-01T06:11:19;16.20;;;9.82;;
71856;SDS011;63344;46.980;28.882;2023-04-01T06:19:32;15.57;;;10.70;;
71856;SDS011;63344;46.980;28.882;2023-04-01T06:22:38;14.48;;;8.23;;
71856;SDS011;63344;46.980;28.882;2023-04-01T06:25:25;20.58;;;12.50;;
71856;SDS011;63344;46.980;28.882;2023-04-01T06:32:00;19.45;;;10.75;;
71856;SDS011;63344;46.980;28.882;2023-04-01T06:37:18;20.40;;;11.82;;
71856;SDS011;63344;46.980;28.882;2023-04-01T06:45:58;17.65;;;10.65;;
71856;SDS011;63344;46.980;28.882;2023-04-01T06:54:42;17.05;;;9.95;;
71856;SDS011;63344;46.980;28.882;2023-04-01T06:57:29;13.68;;;9.05;;
71856;SDS011;63344;46.980;28.882;2023-04-01T07:00:04;17.08;;;8.07;;
71856;SDS011;63344;46.980;28.882;2023-04-01T07:03:26;10.57;;;8.00;;
71856;SDS011;63344;46.980;28.882;2023-04-01T07:08:58;14.18;;;7.80;;
71856;SDS011;63344;46.980;28.882;2023-04-01T07:11:31;14.52;;;10.15;;
71856;SDS011;63344;46.980;28.882;2023-04-01T07:14:16;7.25;;;4.93;;
71856;SDS011;63344;46.980;28.882;2023-04-01T07:19:32;12.00;;;7.53;;
71856;SDS011;63344;46.980;28.882;2023-04-01T07:25:11;13.35;;;9.13;;
71856;SDS011;63344;46.980;28.882;2023-04-01T07:27:45;10.18;;;6.55;;
71856;SDS011;63344;46.980;28.882;2023-04-01T07:30:16;11.63;;;8.27;;
71856;SDS011;63344;46.980;28.882;2023-04-01T07:32:47;13.52;;;8.43;;
71856;SDS011;63344;46.980;28.882;2023-04-01T07:35:30;7.90;;;5.78;;
71856;SDS011;63344;46.980;28.882;2023-04-01T07:38:14;12.02;;;7.53;;
71856;SDS011;63344;46.980;28.882;2023-04-01T07:44:02;10.10;;;5.53;;
71856;SDS011;63344;46.980;28.882;2023-04-01T08:00:37;8.43;;;6.00;;
71856;SDS011;63344;46.980;28.882;2023-04-01T08:05:55;6.50;;;4.43;;
71856;SDS011;63344;46.980;28.882;2023-04-01T08:14:08;7.75;;;5.05;;
71856;SDS011;63344;46.980;28.882;2023-04-01T08:16:56;5.68;;;4.03;;
71856;SDS011;63344;46.980;28.882;2023-04-01T08:22:26;7.43;;;5.65;;
71856;SDS011;63344;46.980;28.882;2023-04-01T08:24:57;8.18;;;5.82;;
71856;SDS011;63344;46.980;28.882;2023-04-01T08:27:40;7.40;;;3.97;;
71856;SDS011;63344;46.980;28.882;2023-04-01T08:33:27;7.45;;;5.32;;
71856;SDS011;63344;46.980;28.882;2023-04-01T08:36:08;9.52;;;5.47;;
71856;SDS011;63344;46.980;28.882;2023-04-01T08:41:35;8.38;;;5.50;;
71856;SDS011;63344;46.980;28.882;2023-04-01T08:47:50;8.48;;;5.50;;
71856;SDS011;63344;46.980;28.882;2023-04-01T08:59:16;6.03;;;4.75;;
71856;SDS011;63344;46.980;28.882;2023-04-01T09:05:22;7.22;;;5.32;;
71856;SDS011;63344;46.980;28.882;2023-04-01T09:08:08;6.90;;;4.45;;
71856;SDS011;63344;46.980;28.882;2023-04-01T09:19:06;10.32;;;6.38;;
71856;SDS011;63344;46.980;28.882;2023-04-01T09:27:52;8.02;;;5.13;;
71856;SDS011;63344;46.980;28.882;2023-04-01T09:41:36;6.30;;;3.95;;
71856;SDS011;63344;46.980;28.882;2023-04-01T09:49:43;8.23;;;5.32;;
71856;SDS011;63344;46.980;28.882;2023-04-01T09:52:30;11.02;;;7.57;;
71856;SDS011;63344;46.980;28.882;2023-04-01T10:17:52;6.65;;;4.78;;
71856;SDS011;63344;46.980;28.882;2023-04-01T10:23:27;5.97;;;4.03;;
71856;SDS011;63344;46.980;28.882;2023-04-01T10:40:42;9.02;;;5.80;;
71856;SDS011;63344;46.980;28.882;2023-04-01T10:54:37;8.40;;;5.75;;
71856;SDS011;63344;46.980;28.882;2023-04-01T11:11:26;7.75;;;5.28;;
71856;SDS011;63344;46.980;28.882;2023-04-01T11:53:15;6.05;;;3.95;;
71856;SDS011;63344;46.980;28.882;2023-04-01T11:55:55;5.10;;;3.85;;
71856;SDS011;63344;46.980;28.882;2023-04-01T11:58:47;4.78;;;3.85;;
71856;SDS011;63344;46.980;28.882;2023-04-01T12:04:36;4.45;;;3.65;;
71856;SDS011;63344;46.980;28.882;2023-04-01T12:07:40;6.03;;;3.78;;
71856;SDS011;63344;46.980;28.882;2023-04-01T12:13:07;6.72;;;4.25;;
71856;SDS011;63344;46.980;28.882;2023-04-01T12:15:56;7.60;;;4.45;;
71856;SDS011;63344;46.980;28.882;2023-04-01T12:24:27;8.02;;;4.88;;
71856;SDS011;63344;46.980;28.882;2023-04-01T12:27:26;6.47;;;4.30;;
71856;SDS011;63344;46.980;28.882;2023-04-01T12:58:36;4.05;;;2.70;;
71856;SDS011;63344;46.980;28.882;2023-04-01T13:02:06;2.78;;;2.10;;
71856;SDS011;63344;46.980;28.882;2023-04-01T13:28:45;5.95;;;4.10;;
71856;SDS011;63344;46.980;28.882;2023-04-01T13:34:09;5.20;;;4.32;;
71856;SDS011;63344;46.980;28.882;2023-04-01T14:08:15;5.53;;;3.30;;
71856;SDS011;63344;46.980;28.882;2023-04-01T14:13:56;8.45;;;4.80;;
71856;SDS011;63344;46.980;28.882;2023-04-01T14:36:49;12.27;;;8.05;;
71856;SDS011;63344;46.980;28.882;2023-04-01T14:47:59;12.80;;;7.45;;
71856;SDS011;63344;46.980;28.882;2023-04-01T14:50:54;16.33;;;8.43;;
71856;SDS011;63344;46.980;28.882;2023-04-01T14:55:53;14.15;;;7.57;;
71856;SDS011;63344;46.980;28.882;2023-04-01T15:13:18;14.57;;;9.25;;
71856;SDS011;63344;46.980;28.882;2023-04-01T15:18:53;16.65;;;8.77;;
71856;SDS011;63344;46.980;28.882;2023-04-01T15:25:19;10.90;;;7.13;;
71856;SDS011;63344;46.980;28.882;2023-04-01T15:27:38;14.20;;;8.80;;
71856;SDS011;63344;46.980;28.882;2023-04-01T15:32:58;9.43;;;6.28;;
71856;SDS011;63344;46.980;28.882;2023-04-01T15:38:42;14.80;;;9.48;;
71856;SDS011;63344;46.980;28.882;2023-04-01T15:47:08;11.48;;;7.20;;
71856;SDS011;63344;46.980;28.882;2023-04-01T15:52:58;14.80;;;8.73;;
71856;SDS011;63344;46.980;28.882;2023-04-01T15:55:54;13.85;;;8.00;;
71856;SDS011;63344;46.980;28.882;2023-04-01T16:16:06;10.00;;;6.80;;
71856;SDS011;63344;46.980;28.882;2023-04-01T16:30:48;17.73;;;8.25;;
71856;SDS011;63344;46.980;28.882;2023-04-01T16:36:28;15.60;;;9.13;;
71856;SDS011;63344;46.980;28.882;2023-04-01T16:42:09;17.55;;;10.35;;
71856;SDS011;63344;46.980;28.882;2023-04-01T16:47:38;18.85;;;9.95;;
71856;SDS011;63344;46.980;28.882;2023-04-01T16:50:18;16.10;;;11.63;;
71856;SDS011;63344;46.980;28.882;2023-04-01T16:52:53;18.85;;;10.77;;
71856;SDS011;63344;46.980;28.882;2023-04-01T16:55:42;15.05;;;8.13;;
71856;SDS011;63344;46.980;28.882;2023-04-01T16:58:34;17.60;;;9.57;;
71856;SDS011;63344;46.980;28.882;2023-04-01T17:01:08;18.98;;;10.20;;
71856;SDS011;63344;46.980;28.882;2023-04-01T17:03:58;15.13;;;7.60;;
71856;SDS011;63344;46.980;28.882;2023-04-01T17:06:40;21.67;;;10.82;;
71856;SDS011;63344;46.980;28.882;2023-04-01T17:17:59;20.15;;;9.32;;
71856;SDS011;63344;46.980;28.882;2023-04-01T17:23:11;19.15;;;8.90;;
71856;SDS011;63344;46.980;28.882;2023-04-01T17:25:48;17.35;;;10.43;;
71856;SDS011;63344;46.980;28.882;2023-04-01T17:36:45;21.05;;;12.20;;
71856;SDS011;63344;46.980;28.882;2023-04-01T17:42:14;23.52;;;12.90;;
71856;SDS011;63344;46.980;28.882;2023-04-01T17:47:49;13.15;;;7.70;;
71856;SDS011;63344;46.980;28.882;2023-04-01T17:56:21;31.77;;;9.05;;
71856;SDS011;63344;46.980;28.882;2023-04-01T17:59:21;24.08;;;12.27;;
71856;SDS011;63344;46.980;28.882;2023-04-01T18:02:03;17.83;;;10.23;;
71856;SDS011;63344;46.980;28.882;2023-04-01T18:27:24;17.08;;;10.25;;
71856;SDS011;63344;46.980;28.882;2023-04-01T18:29:59;26.20;;;12.20;;
71856;SDS011;63344;46.980;28.882;2023-04-01T18:32:41;18.85;;;9.15;;
71856;SDS011;63344;46.980;28.882;2023-04-01T18:35:17;25.50;;;11.13;;
71856;SDS011;63344;46.980;28.882;2023-04-01T18:40:36;15.35;;;9.23;;
71856;SDS011;63344;46.980;28.882;2023-04-01T18:43:21;14.57;;;8.63;;
71856;SDS011;63344;46.980;28.882;2023-04-01T18:46:19;12.63;;;8.70;;
71856;SDS011;63344;46.980;28.882;2023-04-01T18:52:22;14.05;;;6.78;;
71856;SDS011;63344;46.980;28.882;2023-04-01T19:00:35;23.63;;;13.18;;
71856;SDS011;63344;46.980;28.882;2023-04-01T19:03:20;25.50;;;14.57;;
71856;SDS011;63344;46.980;28.882;2023-04-01T19:05:54;27.05;;;14.20;;
71856;SDS011;63344;46.980;28.882;2023-04-01T19:08:41;18.02;;;9.95;;
71856;SDS011;63344;46.980;28.882;2023-04-01T19:11:29;12.50;;;8.57;;
71856;SDS011;63344;46.980;28.882;2023-04-01T19:14:16;13.07;;;8.70;;
71856;SDS011;63344;46.980;28.882;2023-04-01T19:28:59;22.60;;;11.50;;
71856;SDS011;63344;46.980;28.882;2023-04-01T19:34:26;25.60;;;14.65;;
71856;SDS011;63344;46.980;28.882;2023-04-01T19:37:39;20.45;;;12.27;;
71856;SDS011;63344;46.980;28.882;2023-04-01T19:40:37;26.33;;;14.15;;
71856;SDS011;63344;46.980;28.882;2023-04-01T19:52:18;22.05;;;12.38;;
71856;SDS011;63344;46.980;28.882;2023-04-01T19:54:48;19.73;;;10.15;;
71856;SDS011;63344;46.980;28.882;2023-04-01T19:57:48;25.70;;;13.23;;
71856;SDS011;63344;46.980;28.882;2023-04-01T20:00:52;27.63;;;14.48;;
71856;SDS011;63344;46.980;28.882;2023-04-01T20:03:26;20.85;;;11.38;;
71856;SDS011;63344;46.980;28.882;2023-04-01T20:05:59;23.75;;;12.48;;
71856;SDS011;63344;46.980;28.882;2023-04-01T20:14:19;13.70;;;9.38;;
71856;SDS011;63344;46.980;28.882;2023-04-01T20:22:05;26.00;;;15.65;;
71856;SDS011;63344;46.980;28.882;2023-04-01T20:24:45;29.48;;;16.17;;
71856;SDS011;63344;46.980;28.882;2023-04-01T20:29:55;28.58;;;15.80;;
71856;SDS011;63344;46.980;28.882;2023-04-01T20:32:40;28.63;;;14.70;;
71856;SDS011;63344;46.980;28.882;2023-04-01T20:38:37;22.60;;;12.45;;
71856;SDS011;63344;46.980;28.882;2023-04-01T20:41:23;22.73;;;10.85;;
71856;SDS011;63344;46.980;28.882;2023-04-01T20:51:23;27.15;;;13.88;;
71856;SDS011;63344;46.980;28.882;2023-04-01T20:54:11;18.90;;;12.13;;
71856;SDS011;63344;46.980;28.882;2023-04-01T21:00:27;22.25;;;10.82;;
71856;SDS011;63344;46.980;28.882;2023-04-01T21:03:12;31.25;;;14.98;;
71856;SDS011;63344;46.980;28.882;2023-04-01T21:08:46;25.58;;;13.30;;
71856;SDS011;63344;46.980;28.882;2023-04-01T21:14:06;18.05;;;9.00;;
71856;SDS011;63344;46.980;28.882;2023-04-01T21:22:36;28.90;;;15.98;;
71856;SDS011;63344;46.980;28.882;2023-04-01T21:37:12;24.52;;;11.23;;
71856;SDS011;63344;46.980;28.882;2023-04-01T21:42:36;28.80;;;10.70;;
71856;SDS011;63344;46.980;28.882;2023-04-01T21:51:33;33.53;;;16.40;;
71856;SDS011;63344;46.980;28.882;2023-04-01T22:05:17;35.13;;;15.63;;
71856;SDS011;63344;46.980;28.882;2023-04-01T22:07:53;32.78;;;15.02;;
71856;SDS011;63344;46.980;28.882;2023-04-01T22:16:08;30.05;;;13.23;;
71856;SDS011;63344;46.980;28.882;2023-04-01T22:32:48;37.45;;;17.40;;
71856;SDS011;63344;46.980;28.882;2023-04-01T22:43:40;50.05;;;19.58;;
71856;SDS011;63344;46.980;28.882;2023-04-01T22:51:40;46.08;;;18.73;;
71856;SDS011;63344;46.980;28.882;2023-04-01T22:54:19;52.53;;;20.13;;
71856;SDS011;63344;46.980;28.882;2023-04-01T22:56:55;56.67;;;21.55;;
71856;SDS011;63344;46.980;28.882;2023-04-01T23:02:39;60.55;;;22.00;;
71856;SDS011;63344;46.980;28.882;2023-04-01T23:05:15;49.63;;;21.42;;
71856;SDS011;63344;46.980;28.882;2023-04-01T23:10:44;57.47;;;22.00;;
71856;SDS011;63344;46.980;28.882;2023-04-01T23:14:11;53.78;;;22.00;;
71856;SDS011;63344;46.980;28.882;2023-04-01T23:16:15;51.67;;;18.98;;
71856;SDS011;63344;46.980;28.882;2023-04-01T23:18:51;49.15;;;19.02;;
71856;SDS011;63344;46.980;28.882;2023-04-01T23:21:44;49.30;;;20.48;;
71856;SDS011;63344;46.980;28.882;2023-04-01T23:24:33;56.85;;;21.17;;
71856;SDS011;63344;46.980;28.882;2023-04-01T23:27:13;55.60;;;21.38;;
71856;SDS011;63344;46.980;28.882;2023-04-01T23:29:46;43.30;;;18.85;;
71856;SDS011;63344;46.980;28.882;2023-04-01T23:32:17;44.50;;;18.45;;
71856;SDS011;63344;46.980;28.882;2023-04-01T23:34:47;37.72;;;17.17;;
71856;SDS011;63344;46.980;28.882;2023-04-01T23:37:16;34.80;;;15.38;;
71856;SDS011;63344;46.980;28.882;2023-04-01T23:39:50;35.92;;;17.17;;
71856;SDS011;63344;46.980;28.882;2023-04-01T23:42:39;37.15;;;16.65;;
71856;SDS011;63344;46.980;28.882;2023-04-01T23:45:15;30.08;;;14.07;;
71856;SDS011;63344;46.980;28.882;2023-04-01T23:47:44;40.33;;;16.25;;
71856;SDS011;63344;46.980;28.882;2023-04-01T23:50:14;41.70;;;19.67;;
71856;SDS011;63344;46.980;28.882;2023-04-01T23:52:51;45.97;;;19.95;;
71856;SDS011;63344;46.980;28.882;2023-04-01T23:55:33;40.58;;;17.33;;
